WZZ45A EPWA-EPKK
Flight info
| Callsign | WZZ45A |
|---|---|
| Flight time | 0h 26m |
| Altitude | 18000 |
| Route | EVINA DCT KUKAM |
| Aircraft | A21N/M-SDE2E3FGHIRWXY/LB1 |
Departure
| Time | 2026-04-30 17:41 |
|---|---|
| Airport | Warsaw Chopin Airport (EPWA) |
Arrival
| Time | 2026-04-30 18:08 |
|---|---|
| Airport | Kraków John Paul II International Airport (EPKK) |
| Time | Latitude | Longitude | Altitude | Speed | Heading |
|---|---|---|---|---|---|
| 2026-04-30 17:39 | 52.18249 | 20.87782 | 3214 ft | 220 kts | 261° |
| 2026-04-30 17:41 | 52.05350 | 20.75978 | 9622 ft | 305 kts | 201° |
| 2026-04-30 17:42 | 52.01252 | 20.73485 | 10998 ft | 332 kts | 200° |
| 2026-04-30 17:42 | 51.94232 | 20.69221 | 12763 ft | 378 kts | 200° |
| 2026-04-30 17:43 | 51.89214 | 20.66179 | 14391 ft | 392 kts | 200° |
| 2026-04-30 17:44 | 51.81358 | 20.61434 | 16573 ft | 410 kts | 199° |
| 2026-04-30 17:44 | 51.73177 | 20.56508 | 18317 ft | 423 kts | 199° |
| 2026-04-30 17:46 | 51.59306 | 20.48201 | 18370 ft | 427 kts | 199° |
| 2026-04-30 17:47 | 51.48159 | 20.41564 | 18368 ft | 427 kts | 199° |
| 2026-04-30 17:48 | 51.36993 | 20.35056 | 18369 ft | 425 kts | 197° |
| 2026-04-30 17:48 | 51.28572 | 20.30683 | 18370 ft | 425 kts | 196° |
| 2026-04-30 17:49 | 51.17309 | 20.24859 | 18371 ft | 424 kts | 196° |
| 2026-04-30 17:50 | 51.06068 | 20.19067 | 18370 ft | 424 kts | 196° |
| 2026-04-30 17:51 | 50.98022 | 20.14935 | 17621 ft | 392 kts | 196° |
| 2026-04-30 17:52 | 50.90263 | 20.10972 | 16783 ft | 388 kts | 196° |
| 2026-04-30 17:53 | 50.77552 | 20.05344 | 14205 ft | 370 kts | 183° |
| 2026-04-30 17:54 | 50.68196 | 20.07324 | 12124 ft | 310 kts | 149° |
| 2026-04-30 17:55 | 50.62089 | 20.16064 | 10171 ft | 303 kts | 145° |
| 2026-04-30 17:56 | 50.53697 | 20.16816 | 8061 ft | 308 kts | 188° |
| 2026-04-30 17:57 | 50.47544 | 20.15361 | 7099 ft | 286 kts | 187° |
| 2026-04-30 17:58 | 50.41864 | 20.14278 | 6298 ft | 263 kts | 186° |
| 2026-04-30 17:59 | 50.34832 | 20.13070 | 5510 ft | 249 kts | 186° |
| 2026-04-30 18:00 | 50.28369 | 20.11955 | 4960 ft | 227 kts | 187° |
| 2026-04-30 18:00 | 50.23691 | 20.11139 | 4508 ft | 224 kts | 187° |
| 2026-04-30 18:01 | 50.20635 | 20.10611 | 4107 ft | 210 kts | 187° |
| 2026-04-30 18:02 | 50.16718 | 20.09938 | 3975 ft | 182 kts | 187° |
| 2026-04-30 18:02 | 50.13069 | 20.08645 | 3977 ft | 178 kts | 211° |
| 2026-04-30 18:03 | 50.11322 | 20.03976 | 3949 ft | 169 kts | 261° |
| 2026-04-30 18:04 | 50.10565 | 19.98584 | 3264 ft | 169 kts | 262° |
| 2026-04-30 18:05 | 50.09685 | 19.92267 | 2421 ft | 145 kts | 262° |
| 2026-04-30 18:06 | 50.08850 | 19.86244 | 1641 ft | 142 kts | 259° |
| 2026-04-30 18:07 | 50.08013 | 19.80257 | 869 ft | 140 kts | 261° |
| 2026-04-30 18:08 | 50.07631 | 19.77441 | 794 ft | 14 kts | 257° |
| 2026-04-30 18:09 | 50.07550 | 19.76904 | 801 ft | 26 kts | 248° |
| 2026-04-30 18:10 | 50.07379 | 19.76885 | 794 ft | 15 kts | 167° |
| 2026-04-30 18:11 | 50.07404 | 19.77661 | 794 ft | 31 kts | 78° |
| 2026-04-30 18:11 | 50.07537 | 19.78613 | 794 ft | 29 kts | 78° |
| 2026-04-30 18:12 | 50.07659 | 19.79494 | 794 ft | 26 kts | 78° |
| 2026-04-30 18:13 | 50.07699 | 19.79864 | 794 ft | 9 kts | 121° |
| 2026-04-30 18:13 | 50.07509 | 19.79987 | 794 ft | 8 kts | 91° |
| 2026-04-30 18:14 | 50.07565 | 19.80017 | 794 ft | 0 kts | 350° |